Time;durP1;ratioP1;P1;durP2;ratioP2;P2;SDS_P1;SDS_P2;PMS_P1;PMS_P2;Temp;Humidity;BMP_temperature;BMP_pressure;BME280_temperature;BME280_humidity;BME280_pressure;Samples;Min_cycle;Max_cycle;Signal;HPM_P1;HPM_P2
2024/03/25 00:01:24;;;;;;;0.50;0.50;;;;;;;10.74;69.17;95349.22;4982585;28;20054;-62
2024/03/25 00:03:50;;;;;;;0.50;0.50;;;;;;;11.21;69.36;95416.75;4966608;28;20521;-62
2024/03/25 00:06:16;;;;;;;0.50;0.50;;;;;;;10.54;69.66;95326.88;4982738;28;20050;-62
2024/03/25 00:08:42;;;;;;;0.50;0.50;;;;;;;11.18;69.59;95431.44;4982586;28;20306;-62
2024/03/25 00:11:08;;;;;;;0.50;0.50;;;;;;;10.90;69.70;95373.56;4983054;28;20058;-61
2024/03/25 00:13:33;;;;;;;0.40;0.40;;;;;;;10.85;69.87;95372.03;4982382;28;20141;-62
2024/03/25 00:15:59;;;;;;;0.60;0.60;;;;;;;11.18;69.95;95412.03;4982928;28;20056;-61
2024/03/25 00:18:25;;;;;;;0.50;0.50;;;;;;;11.05;70.20;95405.47;4983109;28;20153;-62
2024/03/25 00:20:51;;;;;;;0.60;0.60;;;;;;;10.77;70.34;95386.38;4982732;28;20061;-63
2024/03/25 00:23:17;;;;;;;0.50;0.50;;;;;;;10.78;70.97;95410.13;4966012;28;20050;-62
2024/03/25 00:25:43;;;;;;;0.50;0.50;;;;;;;10.47;71.19;95362.94;4982501;28;20058;-62
2024/03/25 00:28:09;;;;;;;0.50;0.50;;;;;;;10.78;71.26;95393.50;4966222;28;20058;-62
2024/03/25 00:30:34;;;;;;;0.50;0.50;;;;;;;10.66;71.21;95387.28;4982377;28;20058;-62
2024/03/25 00:33:00;;;;;;;0.45;0.45;;;;;;;10.44;71.46;95374.84;4965475;28;20062;-62
2024/03/25 00:35:27;;;;;;;0.50;0.50;;;;;;;10.32;72.57;95367.03;4982119;28;20088;-63
2024/03/25 00:37:53;;;;;;;0.50;0.50;;;;;;;10.47;72.16;95385.09;4980885;28;20477;-62
2024/03/25 00:40:20;;;;;;;0.50;0.50;;;;;;;10.51;72.02;95385.84;4981874;28;20165;-64
2024/03/25 00:42:46;;;;;;;0.50;0.50;;;;;;;10.52;72.20;95376.34;4965677;28;20050;-62
2024/03/25 00:45:12;;;;;;;0.50;0.50;;;;;;;10.47;72.50;95374.03;4982134;28;20587;-63
2024/03/25 00:47:38;;;;;;;0.50;0.50;;;;;;;10.49;71.92;95385.47;4974092;28;20065;-63
2024/03/25 00:50:05;;;;;;;0.40;0.40;;;;;;;10.52;71.39;95392.97;5001859;28;20092;-62
2024/03/25 00:52:31;;;;;;;0.40;0.40;;;;;;;10.42;72.37;95396.59;5001764;28;20506;-63
2024/03/25 00:54:56;;;;;;;0.50;0.50;;;;;;;10.38;72.74;95393.09;5001395;28;20064;-64
2024/03/25 00:57:22;;;;;;;0.50;0.50;;;;;;;10.38;72.47;95393.09;5001707;28;20198;-62
2024/03/25 00:59:49;;;;;;;0.47;0.47;;;;;;;10.38;72.75;95392.31;5002168;28;20458;-62
2024/03/25 01:02:14;;;;;;;0.50;0.50;;;;;;;10.28;73.35;95393.97;4985057;28;20054;-62
2024/03/25 01:04:40;;;;;;;0.50;0.50;;;;;;;10.30;73.39;95365.88;4985565;28;20054;-63
2024/03/25 01:07:06;;;;;;;0.50;0.50;;;;;;;8.16;72.88;95016.69;5001034;28;20049;-63
2024/03/25 01:09:31;;;;;;;0.47;0.47;;;;;;;10.30;73.18;95358.38;4985190;28;20085;-62
2024/03/25 01:11:57;;;;;;;0.40;0.40;;;;;;;10.40;73.29;95363.00;5001127;28;20060;-62
2024/03/25 01:14:23;;;;;;;0.40;0.40;;;;;;;10.47;73.28;95346.34;5001128;28;20062;-62
2024/03/25 01:16:49;;;;;;;0.50;0.50;;;;;;;10.56;73.09;95349.41;5000960;28;20627;-62
2024/03/25 01:19:14;;;;;;;0.50;0.50;;;;;;;10.68;72.42;95357.19;5001338;28;20053;-62
2024/03/25 01:21:40;;;;;;;0.50;0.50;;;;;;;10.55;72.96;95352.59;4984796;28;20060;-63
2024/03/25 01:24:06;;;;;;;0.60;0.60;;;;;;;10.54;73.35;95354.56;5001424;28;20111;-62
2024/03/25 01:26:31;;;;;;;0.50;0.50;;;;;;;10.61;72.88;95357.28;5001357;28;20441;-62
2024/03/25 01:28:57;;;;;;;0.50;0.50;;;;;;;9.78;72.38;95221.34;5001002;28;20531;-62
2024/03/25 01:31:23;;;;;;;0.50;0.50;;;;;;;10.44;72.61;95330.56;5001424;28;20053;-62
2024/03/25 01:33:49;;;;;;;0.43;0.43;;;;;;;10.44;73.48;95344.41;5001090;28;20054;-62
2024/03/25 01:36:17;;;;;;;0.47;0.47;;;;;;;10.46;73.95;95350.28;4991947;28;20058;-62
2024/03/25 01:38:46;;;;;;;0.50;0.50;;;;;;;10.37;73.47;95336.16;5001942;28;20180;-63
2024/03/25 01:41:15;;;;;;;0.50;0.50;;;;;;;9.71;74.33;95249.03;4985775;28;20053;-62
2024/03/25 01:43:41;;;;;;;0.40;0.40;;;;;;;9.97;74.51;95300.97;5001890;28;20518;-62
2024/03/25 01:46:07;;;;;;;0.50;0.50;;;;;;;10.43;73.78;95353.88;4984558;28;20058;-62
2024/03/25 01:48:33;;;;;;;0.50;0.50;;;;;;;10.27;74.45;95339.84;4982227;28;20061;-61
2024/03/25 01:51:00;;;;;;;0.50;0.50;;;;;;;9.48;75.40;95228.69;4984926;28;20054;-62
2024/03/25 01:53:27;;;;;;;0.50;0.50;;;;;;;9.84;76.08;95263.13;4985298;28;20065;-62
2024/03/25 01:55:56;;;;;;;0.50;0.50;;;;;;;10.12;76.02;95301.63;4969411;28;20054;-62
2024/03/25 01:58:23;;;;;;;0.50;0.50;;;;;;;10.33;75.54;95307.75;4984683;28;20062;-62
2024/03/25 02:00:50;;;;;;;0.40;0.40;;;;;;;8.02;74.49;94901.00;4969236;28;20050;-62
2024/03/25 02:03:16;;;;;;;0.50;0.50;;;;;;;10.57;74.52;95301.13;4968562;28;20058;-61
2024/03/25 02:05:43;;;;;;;0.50;0.50;;;;;;;10.62;73.67;95303.47;4968992;28;20059;-62
2024/03/25 02:08:10;;;;;;;0.50;0.50;;;;;;;10.70;74.00;95307.72;4984934;28;20069;-62
2024/03/25 02:10:38;;;;;;;0.40;0.40;;;;;;;10.53;72.54;95283.78;4985044;28;20089;-62
2024/03/25 02:13:03;;;;;;;0.50;0.50;;;;;;;10.35;72.53;95299.81;4984751;28;20537;-62
2024/03/25 02:15:29;;;;;;;0.50;0.50;;;;;;;10.57;74.11;95377.88;4984909;28;20090;-62
2024/03/25 02:17:55;;;;;;;0.50;0.50;;;;;;;10.19;76.78;95407.50;4984680;28;20528;-64
2024/03/25 02:20:21;;;;;;;0.50;0.50;;;;;;;9.91;78.58;95423.47;4984443;28;20058;-63
2024/03/25 02:22:47;;;;;;;0.47;0.47;;;;;;;9.81;79.69;95425.13;4984593;28;20054;-64
2024/03/25 02:25:14;;;;;;;0.50;0.50;;;;;;;9.15;86.64;95343.38;4985087;28;20112;-62
2024/03/25 02:27:40;;;;;;;0.40;0.40;;;;;;;9.43;88.92;95408.75;4984862;28;20112;-61
2024/03/25 02:30:07;;;;;;;0.50;0.50;;;;;;;9.32;94.02;95403.28;4968676;28;20054;-63
2024/03/25 02:32:36;;;;;;;0.50;0.50;;;;;;;9.15;92.22;95415.19;4984367;28;20061;-63
2024/03/25 02:35:12;;;;;;;0.32;0.32;;;;;;;9.10;94.28;95429.41;4967945;28;20128;-64
2024/03/25 02:37:39;;;;;;;0.50;0.50;;;;;;;8.97;96.84;95439.31;4984058;28;20066;-63
2024/03/25 02:40:07;;;;;;;0.40;0.40;;;;;;;8.89;98.68;95454.31;4984795;28;20109;-64
2024/03/25 02:42:33;;;;;;;0.40;0.40;;;;;;;8.91;100.00;95465.75;4968182;28;20050;-63
2024/03/25 02:44:59;;;;;;;0.43;0.43;;;;;;;8.54;100.00;95424.00;4967833;28;20057;-63
2024/03/25 02:47:25;;;;;;;0.40;0.40;;;;;;;8.86;100.00;95480.75;4990587;28;20058;-64
2024/03/25 02:49:51;;;;;;;0.40;0.40;;;;;;;6.24;100.00;95110.34;5003832;28;20108;-64
2024/03/25 02:52:21;;;;;;;0.40;0.40;;;;;;;8.63;100.00;95471.34;5003409;28;20468;-63
2024/03/25 02:54:47;;;;;;;0.40;0.40;;;;;;;8.07;100.00;95389.38;4987086;28;20547;-65
2024/03/25 02:57:12;;;;;;;0.40;0.40;;;;;;;8.21;100.00;95432.69;4987003;28;20049;-65
2024/03/25 02:59:38;;;;;;;0.40;0.40;;;;;;;7.57;100.00;95327.16;5002930;28;20065;-65
2024/03/25 03:02:04;;;;;;;0.40;0.40;;;;;;;8.46;100.00;95448.06;4974159;28;20050;-65
2024/03/25 03:04:30;;;;;;;0.40;0.40;;;;;;;8.58;100.00;95485.53;4983735;28;20065;-66
2024/03/25 03:06:57;;;;;;;0.40;0.40;;;;;;;8.59;100.00;95473.28;4983547;28;20089;-65
2024/03/25 03:09:22;;;;;;;0.40;0.40;;;;;;;8.21;100.00;95410.63;4983649;28;20085;-66
2024/03/25 03:11:48;;;;;;;0.40;0.40;;;;;;;8.56;100.00;95471.31;4983713;28;20117;-65
2024/03/25 03:14:14;;;;;;;0.40;0.40;;;;;;;6.82;100.00;95187.84;4966996;28;20170;-65
2024/03/25 03:16:40;;;;;;;0.40;0.40;;;;;;;8.56;100.00;95432.69;4983152;28;20513;-66
2024/03/25 03:19:05;;;;;;;0.40;0.40;;;;;;;8.73;100.00;95456.72;4982484;28;20100;-65
2024/03/25 03:21:31;;;;;;;0.40;0.40;;;;;;;8.81;100.00;95467.34;4969747;28;20088;-65
2024/03/25 03:23:57;;;;;;;0.40;0.40;;;;;;;8.82;100.00;95457.09;4983192;28;20430;-64
2024/03/25 03:26:26;;;;;;;0.40;0.40;;;;;;;8.80;100.00;95454.72;4983087;28;20054;-65
2024/03/25 03:28:56;;;;;;;0.50;0.50;;;;;;;8.83;100.00;95450.38;5002228;28;20692;-66
2024/03/25 03:31:22;;;;;;;0.40;0.40;;;;;;;8.77;100.00;95433.44;4987569;28;20069;-66
2024/03/25 03:33:48;;;;;;;0.40;0.40;;;;;;;8.85;100.00;95442.50;5002709;28;20576;-64
2024/03/25 03:36:19;;;;;;;0.50;0.50;;;;;;;8.74;100.00;95416.91;5003086;28;20543;-65
2024/03/25 03:38:45;;;;;;;0.40;0.40;;;;;;;8.72;100.00;95414.53;4987052;28;20066;-65
2024/03/25 03:41:11;;;;;;;0.40;0.40;;;;;;;8.69;100.00;95425.59;5002803;28;20567;-66
2024/03/25 03:43:37;;;;;;;0.30;0.30;;;;;;;8.60;100.00;95428.75;5002989;28;20104;-65
2024/03/25 03:46:03;;;;;;;0.40;0.40;;;;;;;8.44;100.00;95436.63;4986492;28;20449;-65
2024/03/25 03:48:30;;;;;;;0.40;0.40;;;;;;;8.20;100.00;95447.66;4982711;28;20061;-65
2024/03/25 03:50:56;;;;;;;0.40;0.40;;;;;;;8.25;100.00;95444.53;4982836;28;20116;-64
2024/03/25 03:53:21;;;;;;;0.30;0.30;;;;;;;8.12;100.00;95457.13;4981140;28;20062;-64
2024/03/25 03:55:58;;;;;;;0.40;0.40;;;;;;;7.37;100.00;95447.91;5002304;28;20101;-64
2024/03/25 03:58:24;;;;;;;0.30;0.30;;;;;;;6.82;100.00;95376.91;5001982;28;20054;-64
2024/03/25 04:00:51;;;;;;;0.30;0.30;;;;;;;6.62;100.00;95423.19;4986366;28;20061;-63
2024/03/25 04:03:17;;;;;;;0.30;0.30;;;;;;;6.27;100.00;95384.47;5002216;28;20060;-65
2024/03/25 04:05:43;;;;;;;0.30;0.30;;;;;;;6.97;100.00;95459.13;5002112;28;20058;-64
2024/03/25 04:08:09;;;;;;;0.30;0.30;;;;;;;6.90;100.00;95426.09;5002275;28;20061;-64
2024/03/25 04:10:36;;;;;;;0.40;0.40;;;;;;;7.39;100.00;95447.53;5002611;28;20066;-65
2024/03/25 04:13:02;;;;;;;0.30;0.30;;;;;;;7.59;100.00;95452.31;5002560;28;20058;-63
2024/03/25 04:15:28;;;;;;;0.40;0.40;;;;;;;7.40;100.00;95394.00;5002969;28;20445;-65
2024/03/25 04:17:54;;;;;;;0.30;0.30;;;;;;;7.72;100.00;95442.50;4985745;28;20057;-63
2024/03/25 04:20:19;;;;;;;0.40;0.40;;;;;;;7.17;100.00;95386.09;5002023;28;20057;-64
2024/03/25 04:22:46;;;;;;;0.40;0.40;;;;;;;7.70;100.00;95444.84;5001899;28;20069;-64
2024/03/25 04:25:14;;;;;;;0.40;0.40;;;;;;;7.85;100.00;95458.66;5001773;28;20065;-65
2024/03/25 04:27:43;;;;;;;0.40;0.40;;;;;;;7.91;100.00;95468.09;4985733;28;20054;-65
2024/03/25 04:30:11;;;;;;;0.40;0.40;;;;;;;7.62;100.00;95421.22;5001801;28;20134;-64
2024/03/25 04:32:38;;;;;;;0.40;0.40;;;;;;;8.11;100.00;95477.59;5001409;28;20050;-65
2024/03/25 04:35:06;;;;;;;0.40;0.40;;;;;;;6.20;100.00;95178.25;5001357;28;20065;-63
2024/03/25 04:37:32;;;;;;;0.40;0.40;;;;;;;8.22;100.00;95479.16;4985271;28;20061;-63
2024/03/25 04:39:58;;;;;;;0.40;0.40;;;;;;;8.29;100.00;95483.94;4992028;28;20506;-64
2024/03/25 04:42:24;;;;;;;0.40;0.40;;;;;;;8.32;100.00;95474.88;5004490;28;20502;-64
2024/03/25 04:44:54;;;;;;;0.40;0.40;;;;;;;8.26;100.00;95481.97;5014518;28;20050;-64
2024/03/25 04:47:20;;;;;;;0.40;0.40;;;;;;;7.46;100.00;95376.72;5001659;28;20053;-65
2024/03/25 04:49:46;;;;;;;0.30;0.30;;;;;;;7.63;100.00;95425.53;5002235;28;20536;-64
2024/03/25 04:52:16;;;;;;;0.38;0.38;;;;;;;7.30;100.00;95368.00;5007529;28;20103;-65
2024/03/25 04:54:43;;;;;;;0.40;0.40;;;;;;;8.04;100.00;95499.63;5005056;28;20060;-64
2024/03/25 04:57:09;;;;;;;0.30;0.30;;;;;;;7.75;100.00;95479.50;5021049;28;20675;-66
2024/03/25 04:59:35;;;;;;;0.40;0.40;;;;;;;7.79;100.00;95476.75;5021184;28;20068;-65
2024/03/25 05:02:00;;;;;;;0.40;0.40;;;;;;;8.05;100.00;95517.75;5020744;28;20124;-64
2024/03/25 05:04:26;;;;;;;0.40;0.40;;;;;;;7.80;100.00;95483.84;5021057;28;20095;-63
2024/03/25 05:06:52;;;;;;;0.40;0.40;;;;;;;8.09;100.00;95529.59;5021108;28;20456;-64
2024/03/25 05:09:18;;;;;;;0.40;0.40;;;;;;;8.17;100.00;95525.66;5021366;28;20467;-64
2024/03/25 05:11:44;;;;;;;0.40;0.40;;;;;;;7.67;100.00;95442.88;5021043;28;20540;-64
2024/03/25 05:14:10;;;;;;;0.40;0.40;;;;;;;8.02;100.00;95489.00;5020121;28;20061;-65
2024/03/25 05:16:36;;;;;;;0.35;0.35;;;;;;;8.26;100.00;95546.19;5020199;28;20065;-63
2024/03/25 05:19:03;;;;;;;0.40;0.40;;;;;;;8.45;100.00;95543.06;5020765;28;20053;-63
2024/03/25 05:21:30;;;;;;;0.38;0.38;;;;;;;8.48;100.00;95533.22;5004301;28;20053;-63
2024/03/25 05:23:56;;;;;;;0.40;0.40;;;;;;;8.51;100.00;95538.75;5020586;28;20053;-64
2024/03/25 05:26:22;;;;;;;0.40;0.40;;;;;;;7.64;100.00;95369.28;5020916;28;20436;-63
2024/03/25 05:28:56;;;;;;;0.40;0.40;;;;;;;8.91;100.00;95546.63;5004876;28;20053;-63
2024/03/25 05:31:22;;;;;;;0.40;0.40;;;;;;;8.82;100.00;95517.84;5004942;28;20056;-64
2024/03/25 05:33:48;;;;;;;0.40;0.40;;;;;;;9.10;100.00;95545.41;5021195;28;20057;-64
2024/03/25 05:36:13;;;;;;;0.40;0.40;;;;;;;9.21;100.00;95546.19;5020552;28;20140;-64
2024/03/25 05:38:41;;;;;;;0.47;0.47;;;;;;;8.83;100.00;95472.47;5009698;28;20065;-66
2024/03/25 05:41:07;;;;;;;0.40;0.40;;;;;;;9.15;100.00;95542.25;5000992;28;20070;-63
2024/03/25 05:43:33;;;;;;;0.50;0.50;;;;;;;8.87;100.00;95498.09;5016680;28;20053;-62
2024/03/25 05:45:59;;;;;;;0.50;0.50;;;;;;;8.94;100.00;95547.78;5005024;28;20452;-64
2024/03/25 05:48:25;;;;;;;0.40;0.40;;;;;;;7.09;100.00;95246.84;4984233;28;20058;-63
2024/03/25 05:51:01;;;;;;;0.40;0.40;;;;;;;8.27;100.00;95425.63;4984685;28;20150;-64
2024/03/25 05:53:27;;;;;;;0.40;0.40;;;;;;;8.47;100.00;95562.00;5015642;28;20057;-63
2024/03/25 05:55:53;;;;;;;0.40;0.40;;;;;;;8.83;100.00;95549.78;5020139;28;20430;-64
2024/03/25 05:58:19;;;;;;;0.40;0.40;;;;;;;9.09;100.00;95546.56;5003090;28;20540;-64
2024/03/25 06:00:49;;;;;;;0.40;0.40;;;;;;;9.37;100.00;95554.84;4981245;28;20054;-64
2024/03/25 06:03:15;;;;;;;0.40;0.40;;;;;;;9.13;98.64;95508.72;5007823;28;20053;-63
2024/03/25 06:05:41;;;;;;;0.50;0.50;;;;;;;9.40;100.00;95556.78;5004869;28;20049;-64
2024/03/25 06:08:15;;;;;;;0.50;0.50;;;;;;;9.48;98.81;95566.66;5004655;28;20101;-64
2024/03/25 06:10:41;;;;;;;0.40;0.40;;;;;;;9.82;99.16;95564.94;5020645;28;20058;-63
2024/03/25 06:13:07;;;;;;;0.40;0.40;;;;;;;10.10;97.63;95561.28;5003927;28;20160;-63
2024/03/25 06:15:33;;;;;;;0.50;0.50;;;;;;;10.38;92.18;95561.94;5013343;28;20053;-63
2024/03/25 06:17:58;;;;;;;0.50;0.50;;;;;;;10.49;91.02;95540.50;5020338;28;20049;-63
2024/03/25 06:20:24;;;;;;;0.50;0.50;;;;;;;10.73;89.71;95520.13;5003808;28;20057;-65
2024/03/25 06:22:50;;;;;;;0.50;0.50;;;;;;;10.63;88.09;95496.09;5020008;28;20619;-62
2024/03/25 06:25:17;;;;;;;0.50;0.50;;;;;;;10.97;90.18;95517.56;5020541;28;20688;-63
2024/03/25 06:27:43;;;;;;;0.50;0.50;;;;;;;11.42;86.37;95561.44;5003419;28;20068;-63
2024/03/25 06:35:39;;;;;;;0.50;0.50;;;;;;;11.94;84.09;95570.41;5000937;28;20054;-63
2024/03/25 06:38:05;;;;;;;0.60;0.60;;;;;;;11.65;82.09;95516.47;5008770;28;20138;-68
2024/03/25 06:40:32;;;;;;;0.50;0.50;;;;;;;11.29;82.76;95452.28;4999619;28;20505;-64
2024/03/25 06:42:57;;;;;;;0.50;0.50;;;;;;;12.04;83.33;95570.25;5002692;28;20563;-69
2024/03/25 06:45:23;;;;;;;0.60;0.60;;;;;;;11.68;82.15;95560.03;5003377;28;20112;-64
2024/03/25 06:47:49;;;;;;;0.50;0.50;;;;;;;10.70;79.65;95404.63;5003377;28;20737;-68
2024/03/25 06:50:15;;;;;;;0.50;0.50;;;;;;;11.65;76.97;95569.16;5003054;28;20061;-69
2024/03/25 06:52:41;;;;;;;0.50;0.50;;;;;;;10.45;78.35;95426.22;4987171;28;20053;-68
2024/03/25 06:55:08;;;;;;;0.50;0.50;;;;;;;11.68;77.39;95594.06;4986322;28;20512;-61
2024/03/25 06:57:34;;;;;;;0.60;0.60;;;;;;;11.43;77.25;95596.28;5011301;28;20057;-68
2024/03/25 06:59:59;;;;;;;0.50;0.50;;;;;;;11.04;78.12;95564.56;5010318;28;20065;-67
2024/03/25 07:02:25;;;;;;;0.50;0.50;;;;;;;11.12;78.17;95596.56;5009658;28;20061;-62
2024/03/25 07:04:51;;;;;;;0.50;0.50;;;;;;;11.24;78.76;95590.53;5022616;28;20050;-63
2024/03/25 07:07:16;;;;;;;0.50;0.50;;;;;;;11.24;75.40;95593.31;5020849;28;20139;-62
2024/03/25 07:09:42;;;;;;;0.50;0.50;;;;;;;11.33;70.82;95597.19;5005962;28;20054;-63
2024/03/25 07:12:08;;;;;;;0.50;0.50;;;;;;;11.35;78.35;95605.09;5003368;28;20046;-63
2024/03/25 07:14:34;;;;;;;0.50;0.50;;;;;;;10.87;81.13;95612.59;5004863;28;20064;-69
2024/03/25 07:17:00;;;;;;;0.50;0.50;;;;;;;11.05;83.20;95597.41;5013702;28;20049;-60
2024/03/25 07:19:26;;;;;;;0.50;0.50;;;;;;;10.78;79.88;95556.91;5021138;28;20576;-69
2024/03/25 07:21:51;;;;;;;0.50;0.50;;;;;;;11.23;77.09;95647.16;5012792;28;20053;-63
2024/03/25 07:24:17;;;;;;;0.50;0.50;;;;;;;11.21;70.07;95638.44;5004424;28;20085;-64
2024/03/25 07:26:43;;;;;;;0.50;0.50;;;;;;;8.59;67.47;95233.22;4986456;28;20084;-64
2024/03/25 07:29:08;;;;;;;0.50;0.50;;;;;;;10.97;63.49;95561.88;5022389;28;20053;-63
2024/03/25 07:31:34;;;;;;;0.50;0.50;;;;;;;11.07;60.86;95500.03;4985636;28;20086;-62
2024/03/25 07:34:00;;;;;;;0.50;0.50;;;;;;;12.03;59.28;95617.84;5019248;28;20136;-64
2024/03/25 07:36:26;;;;;;;0.60;0.60;;;;;;;12.31;61.68;95628.63;5002440;28;20729;-61
2024/03/25 07:38:52;;;;;;;0.57;0.57;;;;;;;12.63;58.57;95606.00;5000556;28;20057;-69
2024/03/25 07:41:18;;;;;;;0.60;0.60;;;;;;;12.65;59.01;95600.78;5011067;28;20076;-67
2024/03/25 07:43:44;;;;;;;0.60;0.60;;;;;;;12.78;60.36;95627.59;4986555;28;20536;-72
2024/03/25 07:46:09;;;;;;;0.57;0.57;;;;;;;12.69;61.16;95627.34;5001761;28;20062;-63
2024/03/25 07:48:35;;;;;;;0.50;0.50;;;;;;;12.65;59.25;95626.59;5017887;28;20058;-64
2024/03/25 07:51:02;;;;;;;0.50;0.50;;;;;;;12.66;55.56;95611.47;5009962;28;20042;-63
2024/03/25 07:53:27;;;;;;;0.60;0.60;;;;;;;11.99;58.61;95464.50;5026351;28;20505;-69
2024/03/25 07:55:54;;;;;;;0.60;0.60;;;;;;;12.97;56.17;95629.69;5002228;28;20065;-69
2024/03/25 07:58:19;;;;;;;0.60;0.60;;;;;;;12.70;55.52;95628.91;5001605;28;20148;-67
2024/03/25 08:00:45;;;;;;;0.60;0.60;;;;;;;12.10;56.77;95567.81;5004726;28;20065;-65
2024/03/25 08:03:11;;;;;;;0.52;0.52;;;;;;;12.69;57.14;95624.56;5021061;28;20065;-62
2024/03/25 08:05:37;;;;;;;0.50;0.50;;;;;;;12.90;57.47;95627.00;5005380;28;20591;-63
2024/03/25 08:08:03;;;;;;;0.50;0.50;;;;;;;12.42;55.96;95529.31;5009646;28;20127;-62
2024/03/25 08:10:29;;;;;;;0.60;0.60;;;;;;;12.48;54.64;95527.63;5001606;28;20128;-66
2024/03/25 08:12:55;;;;;;;0.57;0.57;;;;;;;13.44;55.87;95623.00;5003591;28;20049;-64
2024/03/25 08:15:20;;;;;;;0.60;0.60;;;;;;;13.49;56.28;95575.22;5020587;28;20053;-64
2024/03/25 08:17:46;;;;;;;0.60;0.60;;;;;;;13.49;53.99;95625.31;5021563;28;20118;-60
2024/03/25 08:20:12;;;;;;;0.60;0.60;;;;;;;13.45;51.58;95641.25;4993824;28;20132;-64
2024/03/25 08:22:38;;;;;;;0.60;0.60;;;;;;;13.25;54.80;95604.25;5009863;28;20563;-62
2024/03/25 08:25:05;;;;;;;0.60;0.60;;;;;;;13.59;51.88;95641.00;5005231;28;20050;-68
2024/03/25 08:27:30;;;;;;;0.60;0.60;;;;;;;13.72;49.94;95629.28;5021580;28;20076;-64
2024/03/25 08:29:56;;;;;;;0.60;0.60;;;;;;;13.59;48.62;95624.31;4996660;28;20112;-67
2024/03/25 08:32:22;;;;;;;0.52;0.52;;;;;;;13.54;49.53;95629.59;5007793;28;20058;-69
2024/03/25 08:34:48;;;;;;;0.57;0.57;;;;;;;12.79;49.31;95631.94;5020973;28;20167;-71
2024/03/25 08:37:14;;;;;;;0.50;0.50;;;;;;;12.49;50.87;95640.28;5020641;28;20445;-65
2024/03/25 08:39:39;;;;;;;0.50;0.50;;;;;;;9.41;51.25;95261.91;4998536;28;20343;-68
2024/03/25 08:42:05;;;;;;;0.50;0.50;;;;;;;11.65;51.70;95608.00;5005010;28;20085;-64
2024/03/25 08:44:31;;;;;;;0.50;0.50;;;;;;;10.93;51.38;95538.94;5021203;28;20072;-64
2024/03/25 08:46:57;;;;;;;0.50;0.50;;;;;;;11.25;52.20;95628.13;4991672;28;20051;-64
2024/03/25 08:49:22;;;;;;;0.50;0.50;;;;;;;11.16;52.84;95597.34;5017050;28;20054;-64
2024/03/25 08:51:48;;;;;;;0.50;0.50;;;;;;;11.30;53.12;95663.75;5002378;28;20060;-65
2024/03/25 08:54:14;;;;;;;0.50;0.50;;;;;;;10.90;51.28;95639.50;5013679;28;20519;-63
2024/03/25 08:56:40;;;;;;;0.50;0.50;;;;;;;11.44;53.31;95674.72;5000574;28;20551;-62
2024/03/25 08:59:05;;;;;;;0.52;0.52;;;;;;;10.78;53.17;95559.66;5003100;28;20077;-68
2024/03/25 09:01:31;;;;;;;0.50;0.50;;;;;;;11.64;54.21;95678.50;4985235;28;20056;-66
2024/03/25 09:03:57;;;;;;;0.50;0.50;;;;;;;11.79;53.50;95647.44;4988220;28;20158;-66
2024/03/25 09:06:23;;;;;;;0.50;0.50;;;;;;;11.35;51.36;95594.78;4987522;28;20120;-64
2024/03/25 09:11:33;;;;;;;0.60;0.60;;;;;;;11.37;46.90;95502.88;5016377;28;20065;-65
2024/03/25 09:13:59;;;;;;;0.50;0.50;;;;;;;12.19;47.51;95670.81;4999015;28;20123;-66
2024/03/25 09:16:24;;;;;;;0.50;0.50;;;;;;;12.20;50.40;95689.81;5000603;28;20215;-62
2024/03/25 09:18:50;;;;;;;0.60;0.60;;;;;;;10.01;49.51;95370.84;5018972;28;20700;-62
2024/03/25 09:21:16;;;;;;;0.60;0.60;;;;;;;12.35;50.75;95732.09;4986560;28;20513;-66
2024/03/25 09:23:42;;;;;;;0.50;0.50;;;;;;;12.57;50.49;95696.53;5017733;28;20049;-65
2024/03/25 09:26:07;;;;;;;0.55;0.55;;;;;;;12.89;48.56;95703.25;5004774;28;20054;-66
2024/03/25 09:28:33;;;;;;;0.60;0.60;;;;;;;13.09;49.17;95706.97;4994910;28;20145;-65
2024/03/25 09:30:59;;;;;;;0.60;0.60;;;;;;;12.35;47.86;95671.00;4980880;28;20559;-66
2024/03/25 09:33:25;;;;;;;0.60;0.60;;;;;;;12.43;49.74;95691.16;4998831;28;20058;-69
2024/03/25 09:35:51;;;;;;;0.60;0.60;;;;;;;12.36;47.03;95653.13;5000621;28;20575;-70
2024/03/25 09:38:16;;;;;;;0.60;0.60;;;;;;;12.19;47.22;95621.63;5013915;28;20057;-72
2024/03/25 09:40:42;;;;;;;0.50;0.50;;;;;;;12.97;47.14;95738.09;4991827;28;20049;-66
2024/03/25 09:43:20;;;;;;;0.60;0.60;;;;;;;13.10;47.41;95761.34;5002468;28;20060;-67
2024/03/25 09:45:48;;;;;;;0.60;0.60;;;;;;;12.19;46.21;95637.50;5000317;28;20551;-71
2024/03/25 09:48:16;;;;;;;0.60;0.60;;;;;;;12.64;46.66;95758.34;5003189;28;20069;-70
2024/03/25 09:50:44;;;;;;;0.60;0.60;;;;;;;12.37;48.68;95715.81;4999188;28;20548;-66
2024/03/25 09:53:09;;;;;;;0.60;0.60;;;;;;;12.87;47.35;95749.31;5012897;28;20057;-63
2024/03/25 09:55:35;;;;;;;0.50;0.50;;;;;;;12.25;47.91;95696.91;4998299;28;20062;-65
2024/03/25 09:58:03;;;;;;;0.60;0.60;;;;;;;12.19;48.24;95701.34;4991680;28;20061;-70
2024/03/25 10:00:30;;;;;;;0.52;0.52;;;;;;;12.58;48.35;95754.47;4995673;28;20073;-62
2024/03/25 10:02:56;;;;;;;0.50;0.50;;;;;;;11.97;47.78;95722.19;5004478;28;20062;-63
2024/03/25 10:05:22;;;;;;;0.50;0.50;;;;;;;12.11;47.62;95760.91;4983485;28;20072;-63
2024/03/25 10:07:47;;;;;;;0.60;0.60;;;;;;;12.41;48.61;95738.78;5006372;28;20060;-62
2024/03/25 10:10:13;;;;;;;0.50;0.50;;;;;;;12.22;47.99;95725.50;5007120;28;20057;-64
2024/03/25 10:12:41;;;;;;;0.50;0.50;;;;;;;12.56;46.86;95779.09;4987853;28;20053;-66
2024/03/25 10:15:07;;;;;;;0.50;0.50;;;;;;;12.16;46.97;95766.00;5018929;28;20061;-61
2024/03/25 10:17:33;;;;;;;0.50;0.50;;;;;;;11.67;48.01;95753.38;5003561;28;20131;-62
2024/03/25 10:19:59;;;;;;;0.60;0.60;;;;;;;11.51;47.75;95730.09;5001845;28;20054;-63
2024/03/25 10:22:25;;;;;;;0.50;0.50;;;;;;;11.76;47.44;95766.78;5008262;28;20509;-67
2024/03/25 10:24:51;;;;;;;0.50;0.50;;;;;;;11.27;47.31;95706.13;5015185;28;20547;-70
2024/03/25 10:27:23;;;;;;;0.52;0.52;;;;;;;10.67;47.33;95510.69;4991061;28;20061;-63
2024/03/25 10:29:55;;;;;;;0.50;0.50;;;;;;;12.61;46.68;95764.75;4996318;28;20062;-65
2024/03/25 10:32:21;;;;;;;0.50;0.50;;;;;;;12.61;43.68;95786.97;4992327;28;20049;-67
2024/03/25 10:34:47;;;;;;;0.50;0.50;;;;;;;12.58;42.39;95776.69;5007431;28;20432;-66
2024/03/25 10:37:15;;;;;;;0.50;0.50;;;;;;;12.66;43.40;95792.03;5007555;28;20061;-71
2024/03/25 10:39:50;;;;;;;0.50;0.50;;;;;;;12.77;42.79;95775.28;5003059;28;20050;-68
2024/03/25 10:42:20;;;;;;;0.60;0.60;;;;;;;12.68;43.37;95759.09;4990881;28;20053;-66
2024/03/25 10:44:48;;;;;;;0.60;0.60;;;;;;;12.41;41.36;95702.66;4990521;28;20065;-66
2024/03/25 10:47:23;;;;;;;0.60;0.60;;;;;;;12.83;42.27;95760.50;4996571;28;20502;-67
2024/03/25 10:49:53;;;;;;;0.52;0.52;;;;;;;12.45;43.18;95733.19;4984103;28;20053;-62
2024/03/25 10:52:21;;;;;;;0.50;0.50;;;;;;;12.84;41.01;95739.84;5003095;28;20061;-64
2024/03/25 10:54:47;;;;;;;0.60;0.60;;;;;;;12.99;42.33;95740.44;5002855;28;20058;-63
2024/03/25 10:57:14;;;;;;;0.50;0.50;;;;;;;12.39;41.91;95696.75;4991174;28;20061;-64
2024/03/25 10:59:42;;;;;;;0.60;0.60;;;;;;;12.16;43.65;95705.75;5000350;28;20316;-64
2024/03/25 11:02:11;;;;;;;0.50;0.50;;;;;;;12.51;44.78;95821.19;5002055;28;20653;-66
2024/03/25 11:04:38;;;;;;;0.50;0.50;;;;;;;12.67;44.41;95740.84;4986782;28;20057;-62
2024/03/25 11:07:15;;;;;;;0.57;0.57;;;;;;;12.79;44.13;95759.75;4989829;28;20618;-65
2024/03/25 11:09:42;;;;;;;0.60;0.60;;;;;;;11.90;43.45;95636.25;5001445;28;20129;-70
2024/03/25 11:12:12;;;;;;;0.60;0.60;;;;;;;13.02;43.80;95779.34;4990297;28;20552;-63
2024/03/25 11:14:38;;;;;;;0.60;0.60;;;;;;;12.51;42.88;95737.88;5005866;28;20057;-67
2024/03/25 11:17:15;;;;;;;0.57;0.57;;;;;;;12.33;42.61;95726.16;5022771;28;20049;-64
2024/03/25 11:19:41;;;;;;;0.50;0.50;;;;;;;12.05;42.85;95715.38;5019218;28;20084;-65
2024/03/25 11:22:09;;;;;;;0.50;0.50;;;;;;;12.41;43.83;95760.97;4991083;28;20508;-66
2024/03/25 11:24:39;;;;;;;0.60;0.60;;;;;;;12.41;44.84;95793.53;4999892;28;20061;-63
2024/03/25 11:27:08;;;;;;;0.50;0.50;;;;;;;12.05;44.54;95654.31;5006346;28;20046;-71
2024/03/25 11:29:34;;;;;;;0.50;0.50;;;;;;;12.95;43.99;95746.06;5022422;28;20061;-69
2024/03/25 11:32:04;;;;;;;0.50;0.50;;;;;;;13.00;41.73;95776.19;4988156;28;20046;-68
2024/03/25 11:34:30;;;;;;;0.60;0.60;;;;;;;12.19;43.48;95698.56;5001398;28;20517;-68
2024/03/25 11:36:57;;;;;;;0.60;0.60;;;;;;;12.21;44.69;95796.09;4987248;28;20054;-67
2024/03/25 11:39:24;;;;;;;0.52;0.52;;;;;;;12.13;45.61;95828.69;5019087;28;20060;-66